Flight Track Log - Related Links

Times and Time Zones

All times are in EST time to prevent confusion due to time zone crossing. See the SWA9000 flight status page for this flight to view local times or setup timezone preferences in your user account.


Time Position Orientation Groundspeed Altitude Reporting Facility
EST Latitude Longitude Course Direction KTS MPH feet Rate Location/Type
Tue 07:15:00 AM 41.7667 -87.7667 114° Southeast 137 158 1,800  Level Chicago TRACON
Tue 07:16:00 AM 41.7500 -87.7167 114° Southeast 224 258 3,800 2,268 Climbing Chicago TRACON
Tue 07:17:07 AM 41.7842 -87.6167 65° Northeast 279 321 6,600 2,813 Climbing Chicago Center
Tue 07:18:08 AM 41.8217 -87.5092 65° Northeast 322 371 9,800 3,124 Climbing Chicago Center
Tue 07:19:08 AM 41.8061 -87.3817 99° East 347 399 12,900 2,777 Climbing Chicago Center
Tue 07:20:09 AM 41.7867 -87.2419 101° East 380 437 15,400 2,607 Climbing Chicago Center
Tue 07:21:10 AM 41.7653 -87.0911 101° East 399 459 18,200 2,380 Climbing Chicago Center
Tue 07:22:10 AM 41.7622 -86.9475 92° East 408 470 20,200 2,132 Climbing Chicago Center
Tue 07:23:11 AM 41.7647 -86.7875 89° East 425 489 22,500 1,475 Climbing Chicago Center
Tue 07:24:12 AM 41.7661 -86.6061 89° East 443 510 23,200 1,377 Climbing Chicago Center
Tue 07:25:13 AM 41.7669 -86.4414 90° East 443 510 25,300 1,918 Climbing Chicago Center
Tue 07:26:14 AM 41.7658 -86.2708 90° East 455 524 27,100 1,636 Climbing Chicago Center
Tue 07:27:14 AM 41.7539 -86.0983 95° East 464 534 28,600 1,438 Climbing Chicago Center
Tue 07:28:15 AM 41.7428 -85.9200 95° East 478 550 30,000 1,028 Climbing Chicago Center
Tue 07:30:15 AM 41.7206 -85.5569 95° East 513 590 31,700 956 Climbing Cleveland Center
Tue 07:31:17 AM 41.7072 -85.3636 95° East 521 600 32,900 1,415 Climbing Cleveland Center
Tue 07:32:18 AM 41.6919 -85.1383 95° East 526 605 34,600 1,415 Climbing Cleveland Center
Tue 07:33:20 AM 41.6786 -84.9439 95° East 527 606 35,800 976 Climbing Chicago Center
Tue 07:34:21 AM 41.6650 -84.7494 95° East 524 603 36,600 780 Climbing Chicago Center
Tue 07:35:23 AM 41.6556 -84.5547 94° East 526 605 37,400 726 Climbing Cleveland Center
Tue 07:36:25 AM 41.6481 -84.3581 93° East 526 605 38,100 581 Climbing Cleveland Center
Tue 07:37:27 AM 41.6392 -84.1575 93° East 538 619 38,600 439 Climbing Cleveland Center
Tue 07:38:28 AM 41.6156 -83.9639 99° East 536 617 39,000 195 Climbing Cleveland Center
Tue 07:39:30 AM 41.5336 -83.7567 118° Southeast 535 616 39,000  Level Cleveland Center
Tue 07:40:32 AM 41.4625 -83.5894 120° Southeast 525 604 39,000  Level Cleveland Center
Tue 07:41:33 AM 41.3897 -83.4208 120° Southeast 527 606 39,000  Level Cleveland Center
Tue 07:42:35 AM 41.3175 -83.2525 120° Southeast 527 606 39,000  Level Cleveland Center
Tue 07:43:37 AM 41.2353 -83.0611 120° Southeast 527 606 39,000  Level Cleveland Center
Tue 07:44:38 AM 41.1622 -82.8914 120° Southeast 528 608 39,000  Level Cleveland Center
Tue 07:45:40 AM 41.0881 -82.7228 120° Southeast 527 606 39,000  Level Cleveland Center
Tue 07:46:42 AM 41.0142 -82.5542 120° Southeast 527 606 39,000  Level Cleveland Center
Tue 07:47:43 AM 40.9397 -82.3878 121° Southeast 526 605 39,000  Level Cleveland Center
Tue 07:48:45 AM 40.8669 -82.2225 120° Southeast 523 602 39,000  Level Cleveland Center
Tue 07:49:47 AM 40.7925 -82.0578 121° Southeast 523 602 39,000  Level Cleveland Center
Tue 07:50:49 AM 40.7069 -81.8664 120° Southeast 522 601 39,000  Level Cleveland Center
Tue 07:51:51 AM 40.6331 -81.7008 120° Southeast 522 601 39,000  Level Cleveland Center
Tue 07:52:52 AM 40.5583 -81.5358 121° Southeast 522 601 39,000  Level Cleveland Center
Tue 07:53:54 AM 40.4842 -81.3744 121° Southeast 522 601 39,000  Level Cleveland Center
Tue 07:54:56 AM 40.4106 -81.2108 121° Southeast 522 601 39,000  Level Cleveland Center
Tue 07:55:58 AM 40.3350 -81.0500 122° Southeast 522 601 39,000  Level Cleveland Center
Tue 07:57:00 AM 40.2444 -80.8558 121° Southeast 522 601 39,000  Level Cleveland Center
Tue 07:58:01 AM 40.1694 -80.6956 121° Southeast 522 601 39,000 -49 Level Cleveland Center
Tue 07:59:03 AM 40.0942 -80.5333 121° Southeast 523 602 38,900 -532 Descending Cleveland Center
Tue 08:00:05 AM 40.0183 -80.3733 122° Southeast 524 603 37,900 -919 Descending Cleveland Center
Tue 08:01:07 AM 39.9408 -80.2117 122° Southeast 523 602 37,000 -1,016 Descending Cleveland Center
Tue 08:02:09 AM 39.8558 -80.0206 120° Southeast 523 602 35,800 -1,707 Descending Cleveland Center
Tue 08:03:10 AM 39.8169 -79.8328 105° East 543 625 33,500 -2,146 Descending Cleveland Center
Tue 08:04:12 AM 39.7783 -79.6511 105° East 532 612 31,400 -2,032 Descending Cleveland Center
Tue 08:05:14 AM 39.7411 -79.4717 105° East 522 601 29,300 -1,984 Descending Cleveland Center
Tue 08:06:16 AM 39.7053 -79.2969 105° East 510 587 27,300 -1,935 Descending Cleveland Center
Tue 08:07:18 AM 39.6692 -79.1303 106° East 487 560 25,300 -1,113 Descending Cleveland Center
Tue 08:08:20 AM 39.6311 -78.9503 105° East 462 532 25,000 -919 Descending Cleveland Center
Tue 08:09:22 AM 39.5978 -78.8003 106° East 440 506 23,400 -1,659 Descending Cleveland Center
Tue 08:10:23 AM 39.5656 -78.6533 106° East 428 493 21,600 -1,905 Descending Cleveland Center
Tue 08:11:28 AM 39.5269 -78.4839 106° East 423 487 19,400 -1,667 Descending Washington Center
Tue 08:12:29 AM 39.4967 -78.3456 106° East 410 472 18,100 -1,450 Descending Washington Center
Tue 08:13:28 AM 39.4683 -78.2153 106° East 392 451 16,500 -1,600 Descending Washington Center
Tue 08:14:29 AM 39.4400 -78.0881 106° East 377 434 14,900 -787 Descending Washington Center
Tue 08:15:30 AM 39.4342 -77.9589 93° East 362 417 14,900 51 Level Washington Center
Tue 08:16:27 AM 39.4367 -77.8325 88° East 357 411 15,000 51 Climbing Washington Center
Tue 08:17:28 AM 39.4386 -77.7197 89° East 352 405 15,000 -595 Level Washington Center
Tue 08:18:28 AM 39.4428 -77.5936 88° East 347 399 13,800 -1,339 Descending Washington Center
Tue 08:19:29 AM 39.4428 -77.4728 90° East 342 394 12,300 -1,388 Descending Washington Center
Tue 08:20:29 AM 39.4467 -77.3519 88° East 336 387 11,000 -595 Descending Washington Center
Tue 08:21:30 AM 39.4608 -77.2392 81° East 325 374 11,100 -422 Climbing Washington Center
Tue 08:22:37 AM 39.4667 -77.1000 87° East 309 356 10,100 -1,091 Descending Potomac TRACON
Tue 08:23:31 AM 39.4667 -77.0000 90° East 293 337 8,900 -1,333 Descending Potomac TRACON
Tue 08:24:25 AM 39.4667 -76.9000 90° East 282 325 7,700 -1,250 Descending Potomac TRACON
Tue 08:25:31 AM 39.4667 -76.8000 90° East 273 314 6,400 -1,238 Descending Potomac TRACON
Tue 08:26:31 AM 39.4667 -76.7000 90° East 269 310 5,100 -700 Descending Potomac TRACON
Tue 08:27:31 AM 39.4167 -76.6333 134° Southeast 259 298 5,000 -800 Descending Potomac TRACON
Tue 08:28:31 AM 39.3667 -76.5667 134° Southeast 263 303 3,500 -1,000 Descending Potomac TRACON
Tue 08:29:25 AM 39.3167 -76.5500 166° South 257 296 3,100 -211 Descending Potomac TRACON
Tue 08:30:25 AM 39.2500 -76.5167 159° South 257 296 3,100 -100 Level Potomac TRACON
Tue 08:31:25 AM 39.1833 -76.5000 169° South 245 282 2,900 -300 Descending Potomac TRACON
Tue 08:32:25 AM 39.1333 -76.5500 218° Southwest 201 231 2,500 -550 Descending Potomac TRACON
Tue 08:33:25 AM 39.1167 -76.6000 247° West 153 176 1,800 -789 Descending Potomac TRACON
Tue 08:34:19 AM 39.1333 -76.6333 303° West 137 158 1,000 -889 Descending Potomac TRACON

Login

Don't have an account? Register now (free) for customized features, flight alerts, and more!